Pagina principale
METAR-TAF:

METAR-TAF

Aeroporti :

Kraljevo, Serbia

latitudine: 43-49-07N, longitudine: 020-35-07E, altezza: 209 m

Osservazione

Il bollettino è stato emesso 34 minuti fa, alle 06:00 UTC
Vento calmo
Temperature 16°C
Umidità 82%
Pressione 1020 hPa
Visibilità 10 km o più
nessuna nube inferiore a 1500 m e nessun cumulonembo

METAR: LYKV 270600Z 00000KT CAVOK 16/13 Q1020 NOSIG

Ora: 08:34 (06:34 UTC)

Previsione

Il bollettino è stato emesso 1 ora e 34 minuti fa, alle 05:00 UTC
Previsione valida dal 27 alle 06 UTC al 28 alle 06 UTC
Vento 2 kt da direzioni variabili
Visibilità 10 km o più
nessuna nube inferiore a 1500 m e nessun cumulonembo
Evoluzione graduale
dal 28 alle 01 UTC al 28 alle 03 UTC
Visibilità: 0300 m
nebbia,

TAF: LYKV 270500Z 2706/2806 VRB02KT CAVOK TX26/2713Z TN08/2803Z BECMG 2801/2803 0300 FG

Osservazioni e previsioni meteorologiche di più di 4000 aeroporti (messaggi METAR e TAF).

Le stazioni disponibili sono rappresentate dai dischi gialli e rossi sulla carta.

Puntare il mouse per vedere il nome della stazione.

Clicca sopra per visualizzare le osservazioni e previsioni meteorologiche.

Per cambiare la mappa : fare clic sui pulsanti verdi con una croce nera per ingrandire, il pulsante verde con un trattino per diminuire, o sulla freccia verde per le mappe adiacenti.


METAR-TAF: